sensor_id;sensor_type;location;lat;lon;timestamp;temperature;humidity
55836;DHT22;66908;50.988;4.780;2023-02-28T00:01:14;0.60;80.70
55836;DHT22;66908;50.988;4.780;2023-02-28T00:03:41;0.50;81.10
55836;DHT22;66908;50.988;4.780;2023-02-28T00:06:08;0.60;80.90
55836;DHT22;66908;50.988;4.780;2023-02-28T00:08:35;0.60;80.90
55836;DHT22;66908;50.988;4.780;2023-02-28T00:11:02;0.70;81.20
55836;DHT22;66908;50.988;4.780;2023-02-28T00:13:28;0.70;80.40
55836;DHT22;66908;50.988;4.780;2023-02-28T00:16:02;0.70;80.40
55836;DHT22;66908;50.988;4.780;2023-02-28T00:18:29;0.70;80.90
55836;DHT22;66908;50.988;4.780;2023-02-28T00:20:54;0.70;80.90
55836;DHT22;66908;50.988;4.780;2023-02-28T00:23:21;0.70;80.90
55836;DHT22;66908;50.988;4.780;2023-02-28T00:25:47;0.60;81.50
55836;DHT22;66908;50.988;4.780;2023-02-28T00:28:13;0.60;81.30
55836;DHT22;66908;50.988;4.780;2023-02-28T00:30:38;0.70;81.00
55836;DHT22;66908;50.988;4.780;2023-02-28T00:33:04;0.70;80.70
55836;DHT22;66908;50.988;4.780;2023-02-28T00:35:30;0.60;80.90
55836;DHT22;66908;50.988;4.780;2023-02-28T00:37:56;0.70;80.90
55836;DHT22;66908;50.988;4.780;2023-02-28T00:40:22;0.70;80.50
55836;DHT22;66908;50.988;4.780;2023-02-28T00:42:48;0.80;79.80
55836;DHT22;66908;50.988;4.780;2023-02-28T00:45:14;0.80;80.00
55836;DHT22;66908;50.988;4.780;2023-02-28T00:47:40;0.90;79.80
55836;DHT22;66908;50.988;4.780;2023-02-28T00:50:07;1.10;78.80
55836;DHT22;66908;50.988;4.780;2023-02-28T00:52:33;1.20;78.50
55836;DHT22;66908;50.988;4.780;2023-02-28T00:54:59;1.30;78.00
55836;DHT22;66908;50.988;4.780;2023-02-28T00:57:25;1.20;78.20
55836;DHT22;66908;50.988;4.780;2023-02-28T00:59:52;1.20;77.90
55836;DHT22;66908;50.988;4.780;2023-02-28T01:02:21;1.00;78.70
55836;DHT22;66908;50.988;4.780;2023-02-28T01:04:47;0.80;79.50
55836;DHT22;66908;50.988;4.780;2023-02-28T01:07:13;0.70;80.20
55836;DHT22;66908;50.988;4.780;2023-02-28T01:09:40;0.60;80.40
55836;DHT22;66908;50.988;4.780;2023-02-28T01:12:07;0.50;81.00
55836;DHT22;66908;50.988;4.780;2023-02-28T01:14:34;0.40;82.10
55836;DHT22;66908;50.988;4.780;2023-02-28T01:17:00;0.30;82.10
55836;DHT22;66908;50.988;4.780;2023-02-28T01:19:26;0.30;82.80
55836;DHT22;66908;50.988;4.780;2023-02-28T01:21:52;0.30;82.30
55836;DHT22;66908;50.988;4.780;2023-02-28T01:24:18;0.20;82.00
55836;DHT22;66908;50.988;4.780;2023-02-28T01:26:44;0.10;82.70
55836;DHT22;66908;50.988;4.780;2023-02-28T01:29:10;0.00;83.60
55836;DHT22;66908;50.988;4.780;2023-02-28T01:31:36;0.10;83.60
55836;DHT22;66908;50.988;4.780;2023-02-28T01:34:02;0.10;83.60
55836;DHT22;66908;50.988;4.780;2023-02-28T01:36:28;0.20;83.40
55836;DHT22;66908;50.988;4.780;2023-02-28T01:38:55;0.20;82.70
55836;DHT22;66908;50.988;4.780;2023-02-28T01:41:27;0.30;82.20
55836;DHT22;66908;50.988;4.780;2023-02-28T01:47:09;0.40;81.80
55836;DHT22;66908;50.988;4.780;2023-02-28T01:49:36;0.40;81.50
55836;DHT22;66908;50.988;4.780;2023-02-28T01:52:02;0.40;81.70
55836;DHT22;66908;50.988;4.780;2023-02-28T01:54:31;0.30;81.70
55836;DHT22;66908;50.988;4.780;2023-02-28T01:57:06;0.30;82.50
55836;DHT22;66908;50.988;4.780;2023-02-28T01:59:40;0.30;82.20
55836;DHT22;66908;50.988;4.780;2023-02-28T02:02:27;0.20;82.50
55836;DHT22;66908;50.988;4.780;2023-02-28T02:04:58;0.20;82.60
55836;DHT22;66908;50.988;4.780;2023-02-28T02:07:30;0.20;82.90
55836;DHT22;66908;50.988;4.780;2023-02-28T02:10:03;0.30;82.40
55836;DHT22;66908;50.988;4.780;2023-02-28T02:17:58;0.40;81.30
55836;DHT22;66908;50.988;4.780;2023-02-28T02:20:46;0.40;81.50
55836;DHT22;66908;50.988;4.780;2023-02-28T02:25:59;0.00;83.70
55836;DHT22;66908;50.988;4.780;2023-02-28T02:45:43;0.00;83.60
55836;DHT22;66908;50.988;4.780;2023-02-28T02:48:13;0.00;83.50
55836;DHT22;66908;50.988;4.780;2023-02-28T02:50:48;-0.20;84.00
55836;DHT22;66908;50.988;4.780;2023-02-28T02:53:18;-0.20;84.10
55836;DHT22;66908;50.988;4.780;2023-02-28T02:55:48;-0.20;84.30
55836;DHT22;66908;50.988;4.780;2023-02-28T02:58:24;0.10;83.60
55836;DHT22;66908;50.988;4.780;2023-02-28T03:00:53;0.10;83.30
55836;DHT22;66908;50.988;4.780;2023-02-28T03:03:22;0.20;82.60
55836;DHT22;66908;50.988;4.780;2023-02-28T03:05:58;0.30;82.00
55836;DHT22;66908;50.988;4.780;2023-02-28T03:08:25;0.30;81.50
55836;DHT22;66908;50.988;4.780;2023-02-28T03:11:01;0.20;82.50
55836;DHT22;66908;50.988;4.780;2023-02-28T03:13:59;0.40;81.70
55836;DHT22;66908;50.988;4.780;2023-02-28T03:16:49;0.30;81.40
55836;DHT22;66908;50.988;4.780;2023-02-28T03:27:29;-0.10;82.60
55836;DHT22;66908;50.988;4.780;2023-02-28T03:32:29;0.00;81.20
55836;DHT22;66908;50.988;4.780;2023-02-28T03:37:39;-0.10;80.50
55836;DHT22;66908;50.988;4.780;2023-02-28T03:40:33;0.00;81.80
55836;DHT22;66908;50.988;4.780;2023-02-28T03:43:07;0.10;82.10
55836;DHT22;66908;50.988;4.780;2023-02-28T03:45:37;-0.10;83.80
55836;DHT22;66908;50.988;4.780;2023-02-28T03:48:19;-0.20;83.80
55836;DHT22;66908;50.988;4.780;2023-02-28T03:50:51;-0.20;83.80
55836;DHT22;66908;50.988;4.780;2023-02-28T03:53:37;-0.30;83.50
55836;DHT22;66908;50.988;4.780;2023-02-28T03:56:22;-0.10;82.70
55836;DHT22;66908;50.988;4.780;2023-02-28T04:01:40;-0.30;82.90
55836;DHT22;66908;50.988;4.780;2023-02-28T04:04:08;-0.20;82.60
55836;DHT22;66908;50.988;4.780;2023-02-28T04:06:35;-0.40;83.90
55836;DHT22;66908;50.988;4.780;2023-02-28T04:09:02;-0.50;83.70
55836;DHT22;66908;50.988;4.780;2023-02-28T04:11:36;-0.50;83.10
55836;DHT22;66908;50.988;4.780;2023-02-28T04:14:03;-0.40;83.40
55836;DHT22;66908;50.988;4.780;2023-02-28T04:16:31;-0.40;82.70
55836;DHT22;66908;50.988;4.780;2023-02-28T04:18:57;-0.30;82.60
55836;DHT22;66908;50.988;4.780;2023-02-28T04:21:33;-0.10;83.00
55836;DHT22;66908;50.988;4.780;2023-02-28T04:23:59;0.00;84.00
55836;DHT22;66908;50.988;4.780;2023-02-28T04:26:33;0.10;84.50
55836;DHT22;66908;50.988;4.780;2023-02-28T04:29:00;0.20;83.80
55836;DHT22;66908;50.988;4.780;2023-02-28T04:31:27;0.30;83.60
55836;DHT22;66908;50.988;4.780;2023-02-28T04:33:53;0.30;83.40
55836;DHT22;66908;50.988;4.780;2023-02-28T04:36:19;0.20;82.50
55836;DHT22;66908;50.988;4.780;2023-02-28T04:38:45;-0.20;83.80
55836;DHT22;66908;50.988;4.780;2023-02-28T04:41:13;-0.50;86.00
55836;DHT22;66908;50.988;4.780;2023-02-28T04:43:39;-0.80;88.10
55836;DHT22;66908;50.988;4.780;2023-02-28T04:46:06;-0.70;87.90
55836;DHT22;66908;50.988;4.780;2023-02-28T04:48:35;-0.40;86.60
55836;DHT22;66908;50.988;4.780;2023-02-28T04:51:07;-0.20;86.10
55836;DHT22;66908;50.988;4.780;2023-02-28T04:53:35;-0.10;85.60
55836;DHT22;66908;50.988;4.780;2023-02-28T04:56:01;-0.10;85.10
55836;DHT22;66908;50.988;4.780;2023-02-28T04:58:27;-0.10;84.60
55836;DHT22;66908;50.988;4.780;2023-02-28T05:00:54;-0.20;85.60
55836;DHT22;66908;50.988;4.780;2023-02-28T05:03:26;-0.10;85.70
55836;DHT22;66908;50.988;4.780;2023-02-28T05:05:52;0.20;84.60
55836;DHT22;66908;50.988;4.780;2023-02-28T05:08:18;0.40;83.20
55836;DHT22;66908;50.988;4.780;2023-02-28T05:10:44;0.20;84.00
55836;DHT22;66908;50.988;4.780;2023-02-28T05:13:13;0.00;86.10
55836;DHT22;66908;50.988;4.780;2023-02-28T05:15:39;-0.10;86.20
55836;DHT22;66908;50.988;4.780;2023-02-28T05:18:05;0.10;85.70
55836;DHT22;66908;50.988;4.780;2023-02-28T05:20:30;0.10;85.80
55836;DHT22;66908;50.988;4.780;2023-02-28T05:22:57;0.30;85.50
55836;DHT22;66908;50.988;4.780;2023-02-28T05:25:24;0.60;84.00
55836;DHT22;66908;50.988;4.780;2023-02-28T05:27:50;0.60;84.10
55836;DHT22;66908;50.988;4.780;2023-02-28T05:30:16;0.70;82.70
55836;DHT22;66908;50.988;4.780;2023-02-28T05:32:42;0.80;82.50
55836;DHT22;66908;50.988;4.780;2023-02-28T05:35:11;0.70;82.80
55836;DHT22;66908;50.988;4.780;2023-02-28T05:37:38;0.50;83.50
55836;DHT22;66908;50.988;4.780;2023-02-28T05:40:06;0.60;83.60
55836;DHT22;66908;50.988;4.780;2023-02-28T05:42:32;0.60;83.00
55836;DHT22;66908;50.988;4.780;2023-02-28T05:44:58;0.60;83.60
55836;DHT22;66908;50.988;4.780;2023-02-28T05:47:24;0.50;83.70
55836;DHT22;66908;50.988;4.780;2023-02-28T05:49:50;0.40;84.40
55836;DHT22;66908;50.988;4.780;2023-02-28T05:52:16;0.50;84.00
55836;DHT22;66908;50.988;4.780;2023-02-28T05:54:42;0.50;84.30
55836;DHT22;66908;50.988;4.780;2023-02-28T05:57:08;0.60;83.70
55836;DHT22;66908;50.988;4.780;2023-02-28T05:59:33;0.70;83.40
55836;DHT22;66908;50.988;4.780;2023-02-28T06:01:59;0.90;82.80
55836;DHT22;66908;50.988;4.780;2023-02-28T06:04:25;0.90;82.40
55836;DHT22;66908;50.988;4.780;2023-02-28T06:06:51;1.00;82.10
55836;DHT22;66908;50.988;4.780;2023-02-28T06:09:18;0.90;82.00
55836;DHT22;66908;50.988;4.780;2023-02-28T06:11:44;0.90;82.50
55836;DHT22;66908;50.988;4.780;2023-02-28T06:14:16;0.90;82.70
55836;DHT22;66908;50.988;4.780;2023-02-28T06:16:42;0.80;82.90
55836;DHT22;66908;50.988;4.780;2023-02-28T06:19:09;0.80;83.50
55836;DHT22;66908;50.988;4.780;2023-02-28T06:21:35;0.70;83.80
55836;DHT22;66908;50.988;4.780;2023-02-28T06:24:02;0.60;84.10
55836;DHT22;66908;50.988;4.780;2023-02-28T06:26:28;0.60;84.10
55836;DHT22;66908;50.988;4.780;2023-02-28T06:28:54;0.60;84.50
55836;DHT22;66908;50.988;4.780;2023-02-28T06:31:20;0.70;84.90
55836;DHT22;66908;50.988;4.780;2023-02-28T06:33:51;0.70;84.80
55836;DHT22;66908;50.988;4.780;2023-02-28T06:36:17;0.80;84.60
55836;DHT22;66908;50.988;4.780;2023-02-28T06:38:43;0.80;84.60
55836;DHT22;66908;50.988;4.780;2023-02-28T06:41:10;0.90;83.80
55836;DHT22;66908;50.988;4.780;2023-02-28T06:43:40;0.90;84.00
55836;DHT22;66908;50.988;4.780;2023-02-28T06:46:08;0.90;84.40
55836;DHT22;66908;50.988;4.780;2023-02-28T06:48:35;0.80;84.00
55836;DHT22;66908;50.988;4.780;2023-02-28T06:51:04;0.90;83.90
55836;DHT22;66908;50.988;4.780;2023-02-28T06:53:30;1.00;83.20
55836;DHT22;66908;50.988;4.780;2023-02-28T06:55:56;1.00;83.90
55836;DHT22;66908;50.988;4.780;2023-02-28T06:58:22;1.00;84.30
55836;DHT22;66908;50.988;4.780;2023-02-28T07:00:51;1.10;83.30
55836;DHT22;66908;50.988;4.780;2023-02-28T07:03:18;1.20;83.40
55836;DHT22;66908;50.988;4.780;2023-02-28T07:05:45;1.20;83.20
55836;DHT22;66908;50.988;4.780;2023-02-28T07:08:11;1.30;83.10
55836;DHT22;66908;50.988;4.780;2023-02-28T07:10:37;1.30;82.70
55836;DHT22;66908;50.988;4.780;2023-02-28T07:13:04;1.30;82.00
55836;DHT22;66908;50.988;4.780;2023-02-28T07:15:31;1.30;82.10
55836;DHT22;66908;50.988;4.780;2023-02-28T07:17:56;1.20;83.40
55836;DHT22;66908;50.988;4.780;2023-02-28T07:20:23;1.10;83.10
55836;DHT22;66908;50.988;4.780;2023-02-28T07:22:50;1.00;83.50
55836;DHT22;66908;50.988;4.780;2023-02-28T07:25:26;1.00;83.90
55836;DHT22;66908;50.988;4.780;2023-02-28T07:27:53;1.20;83.30
55836;DHT22;66908;50.988;4.780;2023-02-28T07:30:19;1.20;81.90
55836;DHT22;66908;50.988;4.780;2023-02-28T07:32:45;1.30;81.30
55836;DHT22;66908;50.988;4.780;2023-02-28T07:35:11;1.40;81.60
55836;DHT22;66908;50.988;4.780;2023-02-28T07:37:38;1.40;81.50
55836;DHT22;66908;50.988;4.780;2023-02-28T07:40:09;1.50;81.10
55836;DHT22;66908;50.988;4.780;2023-02-28T07:42:37;1.60;80.30
55836;DHT22;66908;50.988;4.780;2023-02-28T07:45:04;1.80;79.90
55836;DHT22;66908;50.988;4.780;2023-02-28T07:47:31;2.10;79.70
55836;DHT22;66908;50.988;4.780;2023-02-28T07:49:57;2.30;76.50
55836;DHT22;66908;50.988;4.780;2023-02-28T07:52:23;2.50;75.60
55836;DHT22;66908;50.988;4.780;2023-02-28T07:54:50;2.80;74.00
55836;DHT22;66908;50.988;4.780;2023-02-28T07:57:16;3.10;72.70
55836;DHT22;66908;50.988;4.780;2023-02-28T07:59:42;3.10;71.50
55836;DHT22;66908;50.988;4.780;2023-02-28T08:02:16;3.30;70.90
55836;DHT22;66908;50.988;4.780;2023-02-28T08:04:43;3.20;70.50
55836;DHT22;66908;50.988;4.780;2023-02-28T08:07:09;3.10;70.70
55836;DHT22;66908;50.988;4.780;2023-02-28T08:09:39;3.20;69.50
55836;DHT22;66908;50.988;4.780;2023-02-28T08:12:06;3.40;69.30
55836;DHT22;66908;50.988;4.780;2023-02-28T08:14:33;3.40;69.70
55836;DHT22;66908;50.988;4.780;2023-02-28T08:16:59;3.70;67.90
55836;DHT22;66908;50.988;4.780;2023-02-28T08:19:25;4.10;67.90
55836;DHT22;66908;50.988;4.780;2023-02-28T08:21:51;4.20;66.40
55836;DHT22;66908;50.988;4.780;2023-02-28T08:24:17;4.10;64.70
55836;DHT22;66908;50.988;4.780;2023-02-28T08:26:43;4.20;65.20
55836;DHT22;66908;50.988;4.780;2023-02-28T08:29:09;4.40;63.90
55836;DHT22;66908;50.988;4.780;2023-02-28T08:31:35;4.30;64.60
55836;DHT22;66908;50.988;4.780;2023-02-28T08:34:12;4.50;63.20
55836;DHT22;66908;50.988;4.780;2023-02-28T08:36:39;4.70;63.40
55836;DHT22;66908;50.988;4.780;2023-02-28T08:39:06;4.20;63.20
55836;DHT22;66908;50.988;4.780;2023-02-28T08:41:32;4.10;65.40
55836;DHT22;66908;50.988;4.780;2023-02-28T08:43:58;4.50;64.10
55836;DHT22;66908;50.988;4.780;2023-02-28T08:46:24;4.60;63.60
55836;DHT22;66908;50.988;4.780;2023-02-28T08:48:55;4.60;62.10
55836;DHT22;66908;50.988;4.780;2023-02-28T08:51:21;4.70;61.90
55836;DHT22;66908;50.988;4.780;2023-02-28T08:53:58;5.00;61.90
55836;DHT22;66908;50.988;4.780;2023-02-28T08:56:26;5.20;60.90
55836;DHT22;66908;50.988;4.780;2023-02-28T08:58:55;5.20;59.90
55836;DHT22;66908;50.988;4.780;2023-02-28T09:01:26;5.20;59.20
55836;DHT22;66908;50.988;4.780;2023-02-28T09:03:53;5.00;59.70
55836;DHT22;66908;50.988;4.780;2023-02-28T09:06:22;5.10;58.10
55836;DHT22;66908;50.988;4.780;2023-02-28T09:08:48;5.10;57.10
55836;DHT22;66908;50.988;4.780;2023-02-28T09:11:15;4.90;58.30
55836;DHT22;66908;50.988;4.780;2023-02-28T09:13:41;4.60;58.50
55836;DHT22;66908;50.988;4.780;2023-02-28T09:16:09;4.60;57.90
55836;DHT22;66908;50.988;4.780;2023-02-28T09:18:37;4.90;58.10
55836;DHT22;66908;50.988;4.780;2023-02-28T09:21:07;5.00;57.40
55836;DHT22;66908;50.988;4.780;2023-02-28T09:23:35;4.80;58.10
55836;DHT22;66908;50.988;4.780;2023-02-28T09:26:04;5.00;58.00
55836;DHT22;66908;50.988;4.780;2023-02-28T09:28:30;5.20;57.80
55836;DHT22;66908;50.988;4.780;2023-02-28T09:30:56;4.90;57.20
55836;DHT22;66908;50.988;4.780;2023-02-28T09:33:26;4.80;56.60
55836;DHT22;66908;50.988;4.780;2023-02-28T09:35:58;5.10;56.50
55836;DHT22;66908;50.988;4.780;2023-02-28T09:38:25;5.30;54.60
55836;DHT22;66908;50.988;4.780;2023-02-28T09:41:00;5.50;55.00
55836;DHT22;66908;50.988;4.780;2023-02-28T09:43:31;5.40;55.50
55836;DHT22;66908;50.988;4.780;2023-02-28T09:48:49;5.80;53.40
55836;DHT22;66908;50.988;4.780;2023-02-28T09:51:30;5.20;54.50
55836;DHT22;66908;50.988;4.780;2023-02-28T09:53:58;4.90;54.00
55836;DHT22;66908;50.988;4.780;2023-02-28T09:56:30;4.50;55.80
55836;DHT22;66908;50.988;4.780;2023-02-28T09:59:01;4.50;57.00
55836;DHT22;66908;50.988;4.780;2023-02-28T10:04:54;4.70;55.60
55836;DHT22;66908;50.988;4.780;2023-02-28T10:10:01;5.60;51.80
55836;DHT22;66908;50.988;4.780;2023-02-28T10:12:30;5.70;51.50
55836;DHT22;66908;50.988;4.780;2023-02-28T10:14:58;6.00;50.00
55836;DHT22;66908;50.988;4.780;2023-02-28T10:17:26;6.00;49.60
55836;DHT22;66908;50.988;4.780;2023-02-28T10:20:14;6.30;48.80
55836;DHT22;66908;50.988;4.780;2023-02-28T10:23:04;6.30;47.40
55836;DHT22;66908;50.988;4.780;2023-02-28T10:25:35;6.10;46.20
55836;DHT22;66908;50.988;4.780;2023-02-28T10:28:21;5.90;47.00
55836;DHT22;66908;50.988;4.780;2023-02-28T10:30:53;5.90;46.90
55836;DHT22;66908;50.988;4.780;2023-02-28T10:33:31;6.20;46.70
55836;DHT22;66908;50.988;4.780;2023-02-28T10:35:58;6.00;46.80
55836;DHT22;66908;50.988;4.780;2023-02-28T10:38:33;6.00;47.70
55836;DHT22;66908;50.988;4.780;2023-02-28T10:41:31;6.20;47.50
55836;DHT22;66908;50.988;4.780;2023-02-28T10:44:20;6.20;46.40
55836;DHT22;66908;50.988;4.780;2023-02-28T10:46:48;6.30;48.10
55836;DHT22;66908;50.988;4.780;2023-02-28T10:49:23;6.60;46.90
55836;DHT22;66908;50.988;4.780;2023-02-28T10:51:54;6.40;46.10
55836;DHT22;66908;50.988;4.780;2023-02-28T10:54:38;5.90;47.10
55836;DHT22;66908;50.988;4.780;2023-02-28T10:57:23;6.20;48.10
55836;DHT22;66908;50.988;4.780;2023-02-28T11:00:13;6.40;48.60
55836;DHT22;66908;50.988;4.780;2023-02-28T11:02:39;6.90;47.00
55836;DHT22;66908;50.988;4.780;2023-02-28T11:05:28;7.40;46.40
55836;DHT22;66908;50.988;4.780;2023-02-28T11:08:02;7.20;45.10
55836;DHT22;66908;50.988;4.780;2023-02-28T11:10:30;7.20;44.90
55836;DHT22;66908;50.988;4.780;2023-02-28T11:13:00;6.60;46.10
55836;DHT22;66908;50.988;4.780;2023-02-28T11:15:33;6.20;45.30
55836;DHT22;66908;50.988;4.780;2023-02-28T11:20:38;6.20;45.50
55836;DHT22;66908;50.988;4.780;2023-02-28T11:23:11;6.10;46.30
55836;DHT22;66908;50.988;4.780;2023-02-28T11:25:39;6.50;45.00
55836;DHT22;66908;50.988;4.780;2023-02-28T11:28:23;6.60;46.90
55836;DHT22;66908;50.988;4.780;2023-02-28T11:33:52;7.30;45.30
55836;DHT22;66908;50.988;4.780;2023-02-28T11:36:20;7.40;45.40
55836;DHT22;66908;50.988;4.780;2023-02-28T11:38:46;7.00;46.10
55836;DHT22;66908;50.988;4.780;2023-02-28T11:41:30;7.00;46.50
55836;DHT22;66908;50.988;4.780;2023-02-28T11:44:20;7.00;44.50
55836;DHT22;66908;50.988;4.780;2023-02-28T11:46:58;6.60;46.00
55836;DHT22;66908;50.988;4.780;2023-02-28T11:49:43;6.80;45.20
55836;DHT22;66908;50.988;4.780;2023-02-28T12:01:11;6.40;47.40
55836;DHT22;66908;50.988;4.780;2023-02-28T12:03:54;6.80;45.40
55836;DHT22;66908;50.988;4.780;2023-02-28T12:17:37;6.60;44.40
55836;DHT22;66908;50.988;4.780;2023-02-28T12:25:47;7.40;43.80
55836;DHT22;66908;50.988;4.780;2023-02-28T12:28:17;7.60;42.40
55836;DHT22;66908;50.988;4.780;2023-02-28T12:30:55;7.70;43.70
55836;DHT22;66908;50.988;4.780;2023-02-28T12:33:26;7.50;43.30
55836;DHT22;66908;50.988;4.780;2023-02-28T12:35:55;7.60;42.30
55836;DHT22;66908;50.988;4.780;2023-02-28T12:38:43;7.80;42.90
55836;DHT22;66908;50.988;4.780;2023-02-28T12:41:42;7.80;41.00
55836;DHT22;66908;50.988;4.780;2023-02-28T12:44:26;7.50;41.50
55836;DHT22;66908;50.988;4.780;2023-02-28T12:46:57;6.80;42.90
55836;DHT22;66908;50.988;4.780;2023-02-28T12:49:30;6.80;44.60
55836;DHT22;66908;50.988;4.780;2023-02-28T12:51:59;7.30;42.90
55836;DHT22;66908;50.988;4.780;2023-02-28T13:00:25;7.10;44.10
55836;DHT22;66908;50.988;4.780;2023-02-28T13:09:05;7.50;41.90
55836;DHT22;66908;50.988;4.780;2023-02-28T13:11:41;6.60;43.30
55836;DHT22;66908;50.988;4.780;2023-02-28T13:17:30;7.10;43.60
55836;DHT22;66908;50.988;4.780;2023-02-28T13:24:57;8.00;41.30
55836;DHT22;66908;50.988;4.780;2023-02-28T13:27:32;8.10;42.00
55836;DHT22;66908;50.988;4.780;2023-02-28T13:29:59;7.90;42.50
55836;DHT22;66908;50.988;4.780;2023-02-28T13:42:47;8.20;41.80
55836;DHT22;66908;50.988;4.780;2023-02-28T13:45:26;7.90;41.40
55836;DHT22;66908;50.988;4.780;2023-02-28T13:48:02;8.00;42.40
55836;DHT22;66908;50.988;4.780;2023-02-28T13:50:33;8.20;42.20
55836;DHT22;66908;50.988;4.780;2023-02-28T13:56:31;8.70;40.90
55836;DHT22;66908;50.988;4.780;2023-02-28T14:04:37;8.90;39.60
55836;DHT22;66908;50.988;4.780;2023-02-28T14:07:06;9.40;40.10
55836;DHT22;66908;50.988;4.780;2023-02-28T14:09:39;9.20;39.10
55836;DHT22;66908;50.988;4.780;2023-02-28T14:15:36;9.20;40.20
55836;DHT22;66908;50.988;4.780;2023-02-28T14:20:43;10.40;38.00
55836;DHT22;66908;50.988;4.780;2023-02-28T14:23:41;11.00;38.30
55836;DHT22;66908;50.988;4.780;2023-02-28T14:31:34;11.00;37.70
55836;DHT22;66908;50.988;4.780;2023-02-28T14:34:24;10.50;38.80
55836;DHT22;66908;50.988;4.780;2023-02-28T14:36:53;10.50;38.20
55836;DHT22;66908;50.988;4.780;2023-02-28T14:39:25;10.70;38.30
55836;DHT22;66908;50.988;4.780;2023-02-28T14:41:51;11.20;37.70
55836;DHT22;66908;50.988;4.780;2023-02-28T14:44:23;10.80;37.20
55836;DHT22;66908;50.988;4.780;2023-02-28T14:46:57;10.60;37.90
55836;DHT22;66908;50.988;4.780;2023-02-28T14:52:13;10.00;39.00
55836;DHT22;66908;50.988;4.780;2023-02-28T14:54:41;9.30;40.40
55836;DHT22;66908;50.988;4.780;2023-02-28T14:57:29;8.90;41.80
55836;DHT22;66908;50.988;4.780;2023-02-28T15:02:38;8.60;42.50
55836;DHT22;66908;50.988;4.780;2023-02-28T15:07:45;7.60;44.30
55836;DHT22;66908;50.988;4.780;2023-02-28T15:12:53;7.80;43.80
55836;DHT22;66908;50.988;4.780;2023-02-28T15:15:20;7.90;43.20
55836;DHT22;66908;50.988;4.780;2023-02-28T15:17:53;7.80;43.20
55836;DHT22;66908;50.988;4.780;2023-02-28T15:20:23;7.70;43.60
55836;DHT22;66908;50.988;4.780;2023-02-28T15:22:51;7.00;45.00
55836;DHT22;66908;50.988;4.780;2023-02-28T15:25:20;7.00;45.80
55836;DHT22;66908;50.988;4.780;2023-02-28T15:27:53;6.70;46.10
55836;DHT22;66908;50.988;4.780;2023-02-28T15:30:30;6.50;46.10
55836;DHT22;66908;50.988;4.780;2023-02-28T15:33:24;6.50;45.70
55836;DHT22;66908;50.988;4.780;2023-02-28T15:35:51;6.80;45.80
55836;DHT22;66908;50.988;4.780;2023-02-28T15:38:25;6.80;45.80
55836;DHT22;66908;50.988;4.780;2023-02-28T15:40:57;7.00;46.10
55836;DHT22;66908;50.988;4.780;2023-02-28T15:45:51;6.90;46.00
55836;DHT22;66908;50.988;4.780;2023-02-28T15:48:23;7.00;45.30
55836;DHT22;66908;50.988;4.780;2023-02-28T15:50:53;6.80;46.20
55836;DHT22;66908;50.988;4.780;2023-02-28T15:53:23;6.90;46.40
55836;DHT22;66908;50.988;4.780;2023-02-28T15:56:02;6.90;45.20
55836;DHT22;66908;50.988;4.780;2023-02-28T15:58:29;6.80;46.70
55836;DHT22;66908;50.988;4.780;2023-02-28T16:01:15;6.50;46.80
55836;DHT22;66908;50.988;4.780;2023-02-28T16:03:50;6.60;45.90
55836;DHT22;66908;50.988;4.780;2023-02-28T16:09:15;6.70;46.20
55836;DHT22;66908;50.988;4.780;2023-02-28T16:11:47;6.80;46.00
55836;DHT22;66908;50.988;4.780;2023-02-28T16:14:18;6.80;46.50
55836;DHT22;66908;50.988;4.780;2023-02-28T16:16:50;6.90;46.10
55836;DHT22;66908;50.988;4.780;2023-02-28T16:19:17;7.00;46.00
55836;DHT22;66908;50.988;4.780;2023-02-28T16:21:44;7.00;45.60
55836;DHT22;66908;50.988;4.780;2023-02-28T16:24:10;6.80;47.00
55836;DHT22;66908;50.988;4.780;2023-02-28T16:26:36;6.30;47.40
55836;DHT22;66908;50.988;4.780;2023-02-28T16:29:05;6.00;48.50
55836;DHT22;66908;50.988;4.780;2023-02-28T16:31:35;6.30;48.70
55836;DHT22;66908;50.988;4.780;2023-02-28T16:34:02;6.50;48.40
55836;DHT22;66908;50.988;4.780;2023-02-28T16:36:29;6.70;48.00
55836;DHT22;66908;50.988;4.780;2023-02-28T16:38:55;6.60;47.50
55836;DHT22;66908;50.988;4.780;2023-02-28T16:41:24;6.50;47.70
55836;DHT22;66908;50.988;4.780;2023-02-28T16:43:52;6.10;48.80
55836;DHT22;66908;50.988;4.780;2023-02-28T16:46:19;6.00;48.10
55836;DHT22;66908;50.988;4.780;2023-02-28T16:48:46;6.00;48.30
55836;DHT22;66908;50.988;4.780;2023-02-28T16:51:15;5.90;49.10
55836;DHT22;66908;50.988;4.780;2023-02-28T16:53:41;5.80;49.40
55836;DHT22;66908;50.988;4.780;2023-02-28T16:56:23;5.80;49.40
55836;DHT22;66908;50.988;4.780;2023-02-28T16:58:51;5.60;49.80
55836;DHT22;66908;50.988;4.780;2023-02-28T17:01:17;5.60;50.30
55836;DHT22;66908;50.988;4.780;2023-02-28T17:03:48;5.60;50.00
55836;DHT22;66908;50.988;4.780;2023-02-28T17:06:23;5.60;50.00
55836;DHT22;66908;50.988;4.780;2023-02-28T17:08:52;5.70;50.20
55836;DHT22;66908;50.988;4.780;2023-02-28T17:11:18;5.70;50.20
55836;DHT22;66908;50.988;4.780;2023-02-28T17:13:45;5.60;50.20
55836;DHT22;66908;50.988;4.780;2023-02-28T17:16:32;5.70;50.30
55836;DHT22;66908;50.988;4.780;2023-02-28T17:19:01;5.80;50.00
55836;DHT22;66908;50.988;4.780;2023-02-28T17:21:28;5.80;49.80
55836;DHT22;66908;50.988;4.780;2023-02-28T17:23:55;5.80;49.80
55836;DHT22;66908;50.988;4.780;2023-02-28T17:26:22;5.70;49.90
55836;DHT22;66908;50.988;4.780;2023-02-28T17:28:50;5.70;50.10
55836;DHT22;66908;50.988;4.780;2023-02-28T17:31:17;5.70;50.60
55836;DHT22;66908;50.988;4.780;2023-02-28T17:33:43;5.70;50.10
55836;DHT22;66908;50.988;4.780;2023-02-28T17:36:21;5.60;50.40
55836;DHT22;66908;50.988;4.780;2023-02-28T17:38:48;5.70;50.40
55836;DHT22;66908;50.988;4.780;2023-02-28T17:41:14;5.70;51.90
55836;DHT22;66908;50.988;4.780;2023-02-28T17:43:40;5.70;51.40
55836;DHT22;66908;50.988;4.780;2023-02-28T17:46:24;5.80;50.80
55836;DHT22;66908;50.988;4.780;2023-02-28T17:48:52;5.80;51.30
55836;DHT22;66908;50.988;4.780;2023-02-28T17:51:20;5.60;50.90
55836;DHT22;66908;50.988;4.780;2023-02-28T17:53:46;5.60;51.40
55836;DHT22;66908;50.988;4.780;2023-02-28T17:56:22;5.50;51.20
55836;DHT22;66908;50.988;4.780;2023-02-28T17:58:49;5.10;52.90
55836;DHT22;66908;50.988;4.780;2023-02-28T18:01:16;5.10;53.70
55836;DHT22;66908;50.988;4.780;2023-02-28T18:03:41;4.90;55.60
55836;DHT22;66908;50.988;4.780;2023-02-28T18:06:21;4.70;55.50
55836;DHT22;66908;50.988;4.780;2023-02-28T18:08:47;4.70;54.10
55836;DHT22;66908;50.988;4.780;2023-02-28T18:11:14;4.60;54.00
55836;DHT22;66908;50.988;4.780;2023-02-28T18:13:50;4.20;54.60
55836;DHT22;66908;50.988;4.780;2023-02-28T18:16:16;4.20;55.20
55836;DHT22;66908;50.988;4.780;2023-02-28T18:18:43;4.30;57.60
55836;DHT22;66908;50.988;4.780;2023-02-28T18:21:11;4.30;56.20
55836;DHT22;66908;50.988;4.780;2023-02-28T18:23:37;4.30;57.50
55836;DHT22;66908;50.988;4.780;2023-02-28T18:26:10;4.30;58.20
55836;DHT22;66908;50.988;4.780;2023-02-28T18:28:35;4.20;57.80
55836;DHT22;66908;50.988;4.780;2023-02-28T18:31:08;4.20;55.20
55836;DHT22;66908;50.988;4.780;2023-02-28T18:33:35;4.20;55.50
55836;DHT22;66908;50.988;4.780;2023-02-28T18:36:01;4.20;56.70